Time,TemperatureF,DewpointF,PressureIn,WindDirection,WindDirectionDegrees,WindSpeedMPH,WindSpeedGustMPH,Humidity,HourlyPrecipIn,Conditions,Clouds,dailyrainin,SoftwareType,DateUTC
2013-04-05 00:22:00,40.0,19.0,29.91,West,280,2.0,5.0,42,0.00,,,-99.99,,2013-04-05 07:22:00,
2013-04-05 00:32:00,40.0,19.0,29.91,West,280,2.0,5.0,42,0.00,,,-99.99,,2013-04-05 07:32:00,
2013-04-05 00:42:00,40.0,19.0,29.91,West,280,2.0,5.0,42,0.00,,,-99.99,,2013-04-05 07:42:00,
2013-04-05 01:22:00,37.0,20.0,29.91,NNE,20,1.0,3.0,49,0.00,,,-99.99,,2013-04-05 08:22:00,
2013-04-05 01:32:00,37.0,20.0,29.91,NNE,20,1.0,3.0,49,0.00,,,-99.99,,2013-04-05 08:32:00,
2013-04-05 01:42:00,37.0,20.0,29.91,NNE,20,1.0,3.0,49,0.00,,,-99.99,,2013-04-05 08:42:00,
2013-04-05 02:22:00,39.0,19.0,29.90,WNW,290,6.0,9.0,45,0.00,,,-99.99,,2013-04-05 09:22:00,
2013-04-05 02:33:00,39.0,19.0,29.90,WNW,290,6.0,9.0,45,0.00,,,-99.99,,2013-04-05 09:33:00,
2013-04-05 02:42:00,39.0,19.0,29.90,WNW,290,6.0,9.0,45,0.00,,,-99.99,,2013-04-05 09:42:00,
2013-04-05 03:23:00,38.0,33.0,29.89,NNE,20,1.0,3.0,82,0.00,,,-99.99,,2013-04-05 10:23:00,
2013-04-05 03:32:00,38.0,33.0,29.89,NNE,20,1.0,3.0,82,0.00,,,-99.99,,2013-04-05 10:32:00,
2013-04-05 03:42:00,38.0,33.0,29.89,NNE,20,1.0,3.0,82,0.00,,,-99.99,,2013-04-05 10:42:00,
2013-04-05 04:22:00,38.0,34.0,29.86,North,0,0.0,3.0,84,0.00,,,-99.99,,2013-04-05 11:22:00,
2013-04-05 04:32:00,38.0,34.0,29.86,North,0,0.0,3.0,84,0.00,,,-99.99,,2013-04-05 11:32:00,
2013-04-05 04:42:00,38.0,34.0,29.86,North,0,0.0,3.0,84,0.00,,,-99.99,,2013-04-05 11:42:00,
2013-04-05 05:22:00,39.0,32.0,29.87,WSW,240,1.0,7.0,76,0.00,,,-99.99,,2013-04-05 12:22:00,
2013-04-05 05:32:00,39.0,32.0,29.87,WSW,240,1.0,7.0,76,0.00,,,-99.99,,2013-04-05 12:32:00,
2013-04-05 05:42:00,39.0,32.0,29.87,WSW,240,1.0,7.0,76,0.00,,,-99.99,,2013-04-05 12:42:00,
2013-04-05 06:22:00,36.0,32.0,29.88,North,0,0.0,3.0,85,0.00,,,-99.99,,2013-04-05 13:22:00,
2013-04-05 06:32:00,36.0,32.0,29.88,North,0,0.0,3.0,85,0.00,,,-99.99,,2013-04-05 13:32:00,
2013-04-05 06:42:00,36.0,32.0,29.88,North,0,0.0,3.0,85,0.00,,,-99.99,,2013-04-05 13:42:00,
2013-04-05 07:22:00,36.0,33.0,29.90,WSW,240,2.0,4.0,90,0.00,,,-99.99,,2013-04-05 14:22:00,
2013-04-05 07:36:00,36.0,33.0,29.90,WSW,240,2.0,4.0,90,0.00,,,-99.99,,2013-04-05 14:36:00,
2013-04-05 07:42:00,36.0,33.0,29.90,WSW,240,2.0,4.0,90,0.00,,,-99.99,,2013-04-05 14:42:00,
2013-04-05 08:23:00,40.0,33.0,29.92,North,0,0.0,3.0,77,0.00,,,-99.99,,2013-04-05 15:23:00,
2013-04-05 08:33:00,40.0,33.0,29.92,North,0,0.0,3.0,77,0.00,,,-99.99,,2013-04-05 15:33:00,
2013-04-05 08:42:00,40.0,33.0,29.92,North,0,0.0,3.0,77,0.00,,,-99.99,,2013-04-05 15:42:00,
2013-04-05 09:23:00,46.0,32.0,29.92,West,260,1.0,8.0,59,0.00,,,-99.99,,2013-04-05 16:23:00,
2013-04-05 09:32:00,46.0,32.0,29.92,West,260,1.0,8.0,59,0.00,,,-99.99,,2013-04-05 16:32:00,
2013-04-05 09:42:00,46.0,32.0,29.92,West,260,1.0,8.0,59,0.00,,,-99.99,,2013-04-05 16:42:00,
2013-04-05 09:45:00,53.0,25.0,29.91,SW,230,3.0,7.0,34,0.00,,,-99.99,,2013-04-05 16:45:00,
2013-04-05 10:23:00,53.0,25.0,29.91,SW,230,3.0,7.0,34,0.00,,,-99.99,,2013-04-05 17:23:00,
2013-04-05 10:32:00,53.0,25.0,29.91,SW,230,3.0,7.0,34,0.00,,,-99.99,,2013-04-05 17:32:00,
2013-04-05 11:22:00,59.0,19.0,29.93,North,0,0.0,4.0,21,0.00,,,-99.99,,2013-04-05 18:22:00,
2013-04-05 11:32:00,59.0,19.0,29.93,North,0,0.0,4.0,21,0.00,,,-99.99,,2013-04-05 18:32:00,
2013-04-05 11:42:00,59.0,19.0,29.93,North,0,0.0,4.0,21,0.00,,,-99.99,,2013-04-05 18:42:00,
2013-04-05 12:22:00,62.0,23.0,29.93,East,80,3.0,6.0,22,0.00,,,-99.99,,2013-04-05 19:22:00,
2013-04-05 12:33:00,62.0,23.0,29.93,East,80,3.0,6.0,22,0.00,,,-99.99,,2013-04-05 19:33:00,
2013-04-05 12:42:00,62.0,23.0,29.93,East,80,3.0,6.0,22,0.00,,,-99.99,,2013-04-05 19:42:00,
2013-04-05 13:22:00,62.0,25.0,29.92,NNE,30,1.0,5.0,24,0.00,,,-99.99,,2013-04-05 20:22:00,
2013-04-05 13:32:00,62.0,25.0,29.92,NNE,30,1.0,5.0,24,0.00,,,-99.99,,2013-04-05 20:32:00,
2013-04-05 13:42:00,62.0,25.0,29.92,NNE,30,1.0,5.0,24,0.00,,,-99.99,,2013-04-05 20:42:00,
2013-04-05 14:23:00,64.0,31.0,29.90,NE,40,2.0,4.0,29,0.00,,,-99.99,,2013-04-05 21:23:00,
2013-04-05 14:33:00,64.0,31.0,29.90,NE,40,2.0,4.0,29,0.00,,,-99.99,,2013-04-05 21:33:00,
2013-04-05 14:42:00,64.0,31.0,29.90,NE,40,2.0,4.0,29,0.00,,,-99.99,,2013-04-05 21:42:00,
2013-04-05 15:23:00,62.0,33.0,29.89,SW,220,1.0,8.0,34,0.00,,,-99.99,,2013-04-05 22:23:00,
2013-04-05 15:33:00,62.0,33.0,29.89,SW,220,1.0,8.0,34,0.00,,,-99.99,,2013-04-05 22:33:00,
2013-04-05 15:42:00,62.0,33.0,29.89,SW,220,1.0,8.0,34,0.00,,,-99.99,,2013-04-05 22:42:00,
2013-04-05 16:22:00,61.0,32.0,29.87,SSW,210,1.0,5.0,33,0.00,,,-99.99,,2013-04-05 23:22:00,
2013-04-05 16:32:00,61.0,32.0,29.87,SSW,210,1.0,5.0,33,0.00,,,-99.99,,2013-04-05 23:32:00,
2013-04-05 16:42:00,61.0,32.0,29.87,SSW,210,1.0,5.0,33,0.00,,,-99.99,,2013-04-05 23:42:00,
2013-04-05 17:22:00,58.0,35.0,29.87,West,280,2.0,4.0,42,0.00,,,-99.99,,2013-04-06 00:22:00,
2013-04-05 17:32:00,58.0,35.0,29.87,West,280,2.0,4.0,42,0.00,,,-99.99,,2013-04-06 00:32:00,
2013-04-05 17:42:00,58.0,35.0,29.87,West,280,2.0,4.0,42,0.00,,,-99.99,,2013-04-06 00:42:00,
2013-04-05 18:22:00,54.0,37.0,29.87,West,270,3.0,3.0,53,0.00,,,-99.99,,2013-04-06 01:22:00,
2013-04-05 18:32:00,54.0,37.0,29.87,West,270,3.0,3.0,53,0.00,,,-99.99,,2013-04-06 01:32:00,
2013-04-05 18:42:00,54.0,37.0,29.87,West,270,3.0,3.0,53,0.00,,,-99.99,,2013-04-06 01:42:00,
2013-04-05 19:22:00,48.0,39.0,29.85,North,0,0.0,1.0,70,0.00,,,-99.99,,2013-04-06 02:22:00,
2013-04-05 19:32:00,48.0,39.0,29.85,North,0,0.0,1.0,70,0.00,,,-99.99,,2013-04-06 02:32:00,
2013-04-05 19:42:00,48.0,39.0,29.85,North,0,0.0,1.0,70,0.00,,,-99.99,,2013-04-06 02:42:00,
2013-04-05 20:22:00,45.0,39.0,29.87,North,0,0.0,1.0,78,0.00,,,-99.99,,2013-04-06 03:22:00,
2013-04-05 20:33:00,45.0,39.0,29.87,North,0,0.0,1.0,78,0.00,,,-99.99,,2013-04-06 03:33:00,
2013-04-05 20:42:00,45.0,39.0,29.87,North,0,0.0,1.0,78,0.00,,,-99.99,,2013-04-06 03:42:00,
2013-04-05 21:23:00,44.0,39.0,29.88,SW,230,1.0,3.0,81,0.00,,,-99.99,,2013-04-06 04:23:00,
2013-04-05 21:32:00,44.0,39.0,29.88,SW,230,1.0,3.0,81,0.00,,,-99.99,,2013-04-06 04:32:00,
2013-04-05 21:42:00,44.0,39.0,29.88,SW,230,1.0,3.0,81,0.00,,,-99.99,,2013-04-06 04:42:00,
2013-04-05 22:22:00,44.0,32.0,29.89,WSW,250,2.0,3.0,63,0.00,,,-99.99,,2013-04-06 05:22:00,
2013-04-05 22:32:00,44.0,32.0,29.89,WSW,250,2.0,3.0,63,0.00,,,-99.99,,2013-04-06 05:32:00,
2013-04-05 22:42:00,44.0,32.0,29.89,WSW,250,2.0,3.0,63,0.00,,,-99.99,,2013-04-06 05:42:00,
2013-04-05 23:22:00,43.0,28.0,29.89,WSW,250,2.0,4.0,54,0.00,,,-99.99,,2013-04-06 06:22:00,
2013-04-05 23:32:00,43.0,28.0,29.89,WSW,250,2.0,4.0,54,0.00,,,-99.99,,2013-04-06 06:32:00,
2013-04-05 23:42:00,43.0,28.0,29.89,WSW,250,2.0,4.0,54,0.00,,,-99.99,,2013-04-06 06:42:00,